• Join FlightAware (Why Join?)
  • Login
  • US Flag 
05:28PM EDT


 

Airport Tracker/Info


-or-


 

Live Flight TrackerFlight Track Log ✈ QXE69 ✈ 20-Feb-2012 ✈ KEAT - KSEA

Flight Track Log - Related Links

Times and Time Zones

All times are in EST time to prevent confusion due to time zone crossing. See the QXE69 flight status page for this flight to view local times or setup timezone preferences in your user account.

Time Position Orientation Groundspeed Altitude Reporting Facility
EST Latitude Longitude Course Direction KTS MPH feet Rate Location/Type
08:59PM 47.4000 -120.2975 116° Southeast  Level FlightAware Approximate
09:02PM 47.3850 -120.2519 107° East 136 157 3,900  Level Seattle Center
09:03PM 47.3689 -120.1736 72° East 220 253 5,900 2,100 Climbing Seattle Center
09:04PM 47.3872 -120.0900 314° West 239 275 8,200 2,460 Climbing Seattle Center
09:05PM 47.4186 -120.1386 249° West 192 221 11,000 2,160 Climbing Seattle Center
09:06PM 47.3964 -120.2242 272° West 233 268 12,700 1,380 Climbing Seattle Center
09:07PM 47.3986 -120.3194 298° West 236 272 13,900 540 Climbing Seattle Center
09:08PM 47.4333 -120.4172 298° West 275 316 13,900  Level Seattle Center
09:09PM 47.4714 -120.5233 297° West 292 336 13,900  Level Seattle Center
09:10PM 47.5161 -120.6517 299° West 292 336 13,900  Level Seattle Center
09:11PM 47.5553 -120.7575 298° West 293 337 13,900 60 Level Seattle Center
09:12PM 47.5936 -120.8653 300° West 288 331 14,100  Climbing Seattle Center
09:13PM 47.6333 -120.9692 297° West 293 337 14,000 -60 Descending Seattle Center
09:14PM 47.6692 -121.0739 298° West 291 335 14,000  Level Seattle Center
09:15PM 47.7075 -121.1800 295° West 292 336 14,000  Level Seattle Center
09:15PM 47.7158 -121.2064 296° West 299 344 14,000  Level Seattle Center
09:16PM 47.7386 -121.2761 300° West 291 335 14,000  Level Seattle Center
09:16PM 47.7425 -121.2861 298° West 291 335 14,000  Level Seattle Center
09:17PM 47.7800 -121.3914 161° South 290 334 14,000  Level Seattle Center
09:17PM 47.7778 -121.3903 298° West 288 331 14,000  Level Seattle Center
09:18PM 47.8172 -121.4994 135° Southeast 291 335 14,000  Level Seattle Center
09:18PM 47.8144 -121.4953 270° West 289 333 14,000 -840 Level Seattle Center
09:19PM 47.8144 -121.6267 86° East 309 356 13,200 -720 Descending Seattle Center
09:19PM 47.8150 -121.6150 257° West 310 357 13,300 -1,620 Climbing Seattle Center
09:20PM 47.7961 -121.7367 264° West 267 307 11,600 -1,920 Descending Seattle Center
09:20PM 47.7953 -121.7478 261° West 275 316 11,400 -1,620 Descending Seattle Center
09:21PM 47.7856 -121.8350 262° West 232 267 10,000 -1,500 Descending Seattle Center
09:21PM 47.7850 -121.8411 263° West 235 270 9,900 -1,620 Descending Seattle Center
09:22PM 47.7778 -121.9256 254° West 220 253 8,400 -1,620 Descending Seattle Center
09:22PM 47.7769 -121.9300 267° West 217 250 8,300 -1,500 Descending Seattle Center
09:23PM 47.7739 -122.0067 265° West 214 246 7,100 -1,200 Descending Seattle Center
09:23PM 47.7733 -122.0161 268° West 216 249 7,100 -300 Level Seattle Center
09:24PM 47.7717 -122.0939 264° West 211 243 6,800 -720 Descending Seattle Center
09:24PM 47.7703 -122.1125 267° West 213 245 6,400 -840 Descending Seattle Center
09:25PM 47.7678 -122.1753 270° West 197 227 6,000 -420 Descending Seattle Center
09:25PM 47.7678 -122.1947 268° West 200 230 6,000 -720 Level Seattle Center
09:26PM 47.7664 -122.2692 207° Southwest 182 209 5,100 -960 Descending Seattle Center
09:27PM 47.7217 -122.3028 192° South 177 204 4,100 -660 Descending Seattle Center
09:28PM 47.6831 -122.3147 184° South 175 201 4,000 -120 Descending Seattle Center
09:28PM 47.6708 -122.3158 184° South 175 201 4,000 -120 Level Seattle Center
09:29PM 47.6397 -122.3189 177° South 175 201 3,900 -420 Descending Seattle Center
09:29PM 47.6217 -122.3175 179° South 178 205 3,600 -900 Descending Seattle Center
09:30PM 47.5836 -122.3169 182° South 177 204 2,900 -900 Descending Seattle Center
09:30PM 47.5731 -122.3175 181° South 176 203 2,700 -900 Descending Seattle Center
09:31PM 47.5461 -122.3181 180° South 153 176 2,100 -840 Descending Seattle Center
09:31PM 47.5322 -122.3181 180° South 149 171 1,900 -720 Descending Seattle Center
09:32PM 47.5106 -122.3181 180° South 111 128 1,400 -600 Descending Seattle Center
09:32PM 47.5017 -122.3181 183° South 105 121 1,300 -540 Descending Seattle Center
09:33PM 47.4842 -122.3194 175° South 98 113 900 -600 Descending Seattle Center
09:33PM 47.4750 -122.3183 180° South 97 112 700 -300 Descending Seattle Center
09:34PM 47.4447 -122.3181 180° South 99 114 500 -240 Descending Seattle Center